Time;durP1;ratioP1;P1;durP2;ratioP2;P2;SDS_P1;SDS_P2;PMS_P1;PMS_P2;Temp;Humidity;BMP_temperature;BMP_pressure;BME280_temperature;BME280_humidity;BME280_pressure;Samples;Min_cycle;Max_cycle;Signal;HPM_P1;HPM_P2
2022/09/25 00:01:16;;;;;;;30.83;16.50;;;14.40;83.50;;;;;;5072085;28;20386;-73
2022/09/25 00:03:42;;;;;;;30.15;16.90;;;14.40;82.70;;;;;;5071981;28;20384;-72
2022/09/25 00:06:12;;;;;;;28.65;16.25;;;14.30;83.50;;;;;;5053957;28;20387;-74
2022/09/25 00:08:38;;;;;;;24.15;15.90;;;14.40;83.70;;;;;;5071844;28;20482;-73
2022/09/25 00:11:12;;;;;;;26.83;15.60;;;14.40;84.40;;;;;;5071681;28;20398;-74
2022/09/25 00:13:39;;;;;;;25.77;14.45;;;14.20;85.70;;;;;;5071951;28;20388;-74
2022/09/25 00:16:05;;;;;;;28.23;14.10;;;14.30;84.20;;;;;;5071795;28;20471;-74
2022/09/25 00:21:18;;;;;;;25.35;15.07;;;14.30;84.90;;;;;;5071985;28;20554;-73
2022/09/25 00:23:45;;;;;;;21.43;14.03;;;14.20;85.90;;;;;;5072140;28;20376;-73
2022/09/25 00:26:13;;;;;;;20.95;13.23;;;14.20;85.80;;;;;;5071962;28;20390;-73
2022/09/25 00:28:40;;;;;;;20.00;13.60;;;14.20;85.90;;;;;;5054912;28;20463;-73
2022/09/25 00:31:07;;;;;;;24.05;14.02;;;14.20;87.10;;;;;;5075621;28;20506;-73
2022/09/25 00:33:33;;;;;;;22.17;13.20;;;14.20;86.90;;;;;;5074316;28;20864;-73
2022/09/25 00:36:07;;;;;;;25.50;13.40;;;14.20;85.40;;;;;;5053819;28;20396;-73
2022/09/25 00:38:35;;;;;;;24.50;13.40;;;14.20;86.60;;;;;;5071628;28;20403;-73
2022/09/25 00:41:02;;;;;;;22.85;12.85;;;14.30;85.30;;;;;;5071495;28;20384;-73
2022/09/25 00:43:39;;;;;;;25.15;12.50;;;14.30;85.00;;;;;;5053673;28;20395;-73
2022/09/25 00:46:20;;;;;;;23.63;12.15;;;14.20;85.90;;;;;;5071349;28;20384;-73
2022/09/25 00:49:10;;;;;;;21.90;11.82;;;14.20;86.00;;;;;;5071872;28;20391;-73
2022/09/25 00:51:39;;;;;;;17.33;10.93;;;14.10;85.10;;;;;;5059834;28;20478;-73
2022/09/25 00:54:06;;;;;;;21.77;11.63;;;14.20;84.80;;;;;;5071081;28;20418;-72
2022/09/25 00:56:37;;;;;;;19.95;10.65;;;14.10;84.30;;;;;;5071162;28;20529;-72
2022/09/25 00:59:05;;;;;;;22.58;11.32;;;14.20;83.00;;;;;;5071029;28;20399;-72
2022/09/25 01:01:31;;;;;;;17.38;10.02;;;14.20;84.20;;;;;;5070940;28;20384;-72
2022/09/25 01:03:58;;;;;;;18.90;10.07;;;14.20;84.20;;;;;;5070925;28;20928;-73
2022/09/25 01:06:26;;;;;;;18.77;9.50;;;14.10;84.40;;;;;;5071369;28;20441;-73
2022/09/25 01:08:52;;;;;;;15.45;9.30;;;14.10;85.50;;;;;;5053464;28;20497;-73
2022/09/25 01:11:17;;;;;;;21.55;9.32;;;14.10;85.40;;;;;;5070944;28;20821;-73
2022/09/25 01:13:43;;;;;;;14.40;8.35;;;14.10;83.20;;;;;;5071215;28;20394;-73
2022/09/25 01:16:35;;;;;;;19.25;7.75;;;14.10;81.10;;;;;;5071240;28;20384;-73
2022/09/25 01:19:45;;;;;;;13.75;7.50;;;14.10;79.60;;;;;;5053302;28;20407;-73
2022/09/25 01:22:31;;;;;;;18.65;6.65;;;14.10;79.90;;;;;;5071879;28;20398;-73
2022/09/25 01:25:24;;;;;;;14.88;7.10;;;14.10;79.90;;;;;;5071110;28;20447;-73
2022/09/25 01:27:58;;;;;;;16.52;7.90;;;14.10;81.80;;;;;;5071091;28;20418;-73
2022/09/25 01:30:24;;;;;;;15.52;8.60;;;14.10;82.90;;;;;;5071005;28;20457;-73
2022/09/25 01:33:12;;;;;;;21.83;9.35;;;14.10;85.10;;;;;;5070871;28;20384;-73
2022/09/25 01:35:58;;;;;;;17.02;9.10;;;14.10;87.70;;;;;;5072132;28;20438;-73
2022/09/25 01:38:49;;;;;;;20.00;9.30;;;14.00;89.80;;;;;;5071752;28;20465;-73
2022/09/25 01:41:32;;;;;;;17.40;9.00;;;14.00;91.30;;;;;;5071792;28;20464;-73
2022/09/25 01:44:27;;;;;;;16.83;8.32;;;14.00;92.50;;;;;;5071022;28;20483;-72
2022/09/25 01:46:55;;;;;;;16.10;7.32;;;13.90;94.10;;;;;;5070272;28;20383;-72
2022/09/25 01:49:32;;;;;;;15.40;6.85;;;13.90;92.70;;;;;;5071080;28;20379;-73
2022/09/25 01:52:00;;;;;;;15.13;6.30;;;13.90;93.70;;;;;;5070316;28;20387;-73
2022/09/25 01:54:33;;;;;;;21.00;7.28;;;13.90;95.00;;;;;;5070492;28;20741;-73
2022/09/25 01:57:08;;;;;;;16.40;6.75;;;13.80;97.70;;;;;;5070563;28;20384;-73
2022/09/25 01:59:43;;;;;;;19.92;6.05;;;13.70;99.70;;;;;;5070635;28;20835;-73
2022/09/25 02:02:12;;;;;;;20.13;7.15;;;13.70;99.90;;;;;;5070535;28;20372;-74
2022/09/25 02:04:43;;;;;;;18.15;7.25;;;13.70;99.90;;;;;;5070288;28;20418;-73
2022/09/25 02:07:14;;;;;;;15.98;7.25;;;13.60;99.90;;;;;;5070330;28;20463;-73
2022/09/25 02:09:44;;;;;;;19.88;7.13;;;13.60;99.90;;;;;;5070613;28;20387;-73
2022/09/25 02:12:22;;;;;;;17.65;6.72;;;13.60;99.90;;;;;;5070262;28;20392;-72
2022/09/25 02:14:58;;;;;;;19.17;6.80;;;13.60;99.90;;;;;;5070319;28;20380;-72
2022/09/25 02:20:44;;;;;;;24.27;7.30;;;13.50;99.90;;;;;;5068356;28;20391;-73
2022/09/25 02:23:22;;;;;;;15.32;6.00;;;13.50;99.90;;;;;;5070601;28;20376;-72
2022/09/25 02:25:51;;;;;;;13.30;5.95;;;13.60;99.90;;;;;;5070719;28;20753;-74
2022/09/25 02:28:17;;;;;;;16.58;6.40;;;13.50;99.90;;;;;;5070755;28;20387;-73
2022/09/25 02:30:46;;;;;;;16.15;5.85;;;13.60;99.90;;;;;;5070808;28;20399;-73
2022/09/25 02:33:11;;;;;;;19.38;5.90;;;13.60;99.90;;;;;;5073473;28;20398;-73
2022/09/25 02:35:38;;;;;;;12.80;5.60;;;13.60;99.90;;;;;;5056087;28;20466;-73
2022/09/25 02:38:04;;;;;;;16.27;5.20;;;13.60;99.90;;;;;;5073901;28;20407;-73
2022/09/25 02:40:47;;;;;;;18.42;5.25;;;13.60;98.90;;;;;;5073746;28;20479;-74
2022/09/25 02:43:49;;;;;;;14.63;5.43;;;13.60;97.40;;;;;;5073532;28;20867;-73
2022/09/25 02:46:59;;;;;;;15.67;5.13;;;13.60;96.10;;;;;;5073651;28;20398;-74
2022/09/25 02:49:46;;;;;;;13.40;5.13;;;13.70;97.60;;;;;;5063630;28;20586;-73
2022/09/25 02:52:26;;;;;;;16.05;5.10;;;13.70;96.60;;;;;;5073449;28;20387;-73
2022/09/25 02:54:58;;;;;;;11.18;4.07;;;13.70;92.60;;;;;;5073543;28;20394;-74
2022/09/25 02:57:41;;;;;;;13.63;4.25;;;13.70;91.40;;;;;;5073643;28;20899;-74
2022/09/25 03:00:08;;;;;;;12.98;4.47;;;13.60;91.60;;;;;;5073290;28;20403;-72
2022/09/25 03:02:36;;;;;;;18.95;4.00;;;13.60;92.00;;;;;;5073628;28;20463;-73
2022/09/25 03:05:04;;;;;;;11.57;4.40;;;13.70;91.30;;;;;;5073194;28;20426;-72
2022/09/25 03:08:36;;;;;;;13.23;4.50;;;13.70;89.40;;;;;;5075297;28;20386;-73
2022/09/25 03:10:17;;;;;;;13.35;3.75;;;13.60;91.50;;;;;;5074815;28;20993;-73
2022/09/25 03:12:43;;;;;;;13.23;3.80;;;13.70;88.80;;;;;;5073455;28;20418;-72
2022/09/25 03:15:11;;;;;;;15.50;3.80;;;13.70;89.40;;;;;;5073106;28;20425;-72
2022/09/25 03:17:38;;;;;;;13.90;3.72;;;13.70;89.90;;;;;;5073405;28;20376;-72
2022/09/25 03:20:05;;;;;;;14.50;3.90;;;13.60;88.20;;;;;;5073344;28;20403;-72
2022/09/25 03:22:31;;;;;;;13.57;4.30;;;13.50;89.00;;;;;;5073137;28;20380;-72
2022/09/25 03:24:57;;;;;;;14.63;3.60;;;13.50;91.50;;;;;;5073059;28;20451;-73
2022/09/25 03:27:26;;;;;;;13.70;4.00;;;13.50;88.70;;;;;;5073054;28;20384;-72
2022/09/25 03:29:54;;;;;;;16.85;3.72;;;13.50;87.60;;;;;;5073088;28;20454;-72
2022/09/25 03:32:19;;;;;;;12.63;4.10;;;13.50;87.30;;;;;;5055019;28;20402;-73
2022/09/25 03:34:45;;;;;;;15.55;3.85;;;13.40;88.70;;;;;;5073205;28;20383;-74
2022/09/25 03:37:10;;;;;;;12.87;3.83;;;13.40;89.70;;;;;;5055117;28;20463;-73
2022/09/25 03:39:36;;;;;;;12.35;3.38;;;13.50;87.20;;;;;;5073348;28;20400;-74
2022/09/25 03:42:02;;;;;;;16.00;3.10;;;13.50;89.10;;;;;;5055574;28;20429;-73
2022/09/25 03:44:28;;;;;;;14.20;3.72;;;13.50;87.50;;;;;;5073028;28;20718;-74
2022/09/25 03:46:53;;;;;;;12.15;3.28;;;13.50;88.70;;;;;;5073496;28;20401;-73
2022/09/25 03:49:19;;;;;;;13.23;3.90;;;13.60;87.80;;;;;;5073386;28;20394;-73
2022/09/25 03:51:44;;;;;;;18.50;3.78;;;13.60;87.90;;;;;;5054663;28;20416;-73
2022/09/25 03:54:10;;;;;;;15.13;3.77;;;13.60;88.00;;;;;;5072449;28;20404;-73
2022/09/25 03:56:35;;;;;;;10.30;3.90;;;13.60;88.30;;;;;;5072500;28;20376;-73
2022/09/25 03:59:01;;;;;;;13.33;3.73;;;13.50;90.10;;;;;;5072505;28;20415;-73
2022/09/25 04:01:27;;;;;;;13.15;3.75;;;13.50;90.80;;;;;;5072141;28;20376;-73
2022/09/25 04:03:53;;;;;;;13.13;4.10;;;13.40;91.40;;;;;;5072142;28;20768;-73
2022/09/25 04:06:22;;;;;;;13.87;4.30;;;13.40;92.20;;;;;;5094615;22;20431;-73
2022/09/25 04:08:49;;;;;;;16.90;4.43;;;13.30;92.90;;;;;;5073952;28;20384;-74
2022/09/25 04:11:16;;;;;;;13.07;3.97;;;13.40;92.90;;;;;;5073183;28;20372;-73
2022/09/25 04:13:43;;;;;;;13.43;4.15;;;13.30;92.50;;;;;;5073310;28;20376;-73
2022/09/25 04:16:10;;;;;;;12.48;4.40;;;13.30;93.40;;;;;;5084064;28;20422;-73
2022/09/25 04:18:35;;;;;;;13.05;4.15;;;13.20;95.10;;;;;;5080578;28;20737;-72
2022/09/25 04:21:04;;;;;;;10.60;4.00;;;13.10;97.00;;;;;;5082025;28;20470;-73
2022/09/25 04:23:29;;;;;;;14.27;4.60;;;13.00;99.60;;;;;;5089987;28;20376;-72
2022/09/25 04:25:55;;;;;;;9.98;4.15;;;13.00;99.90;;;;;;5093700;28;20459;-72
2022/09/25 04:28:22;;;;;;;15.45;4.63;;;13.00;99.90;;;;;;5094189;28;21106;-75
2022/09/25 04:30:48;;;;;;;15.57;5.07;;;13.00;99.90;;;;;;5094065;28;20376;-72
2022/09/25 04:35:59;;;;;;;16.40;5.30;;;12.80;99.90;;;;;;5078279;28;20442;-74
2022/09/25 04:38:25;;;;;;;19.38;4.70;;;12.90;99.90;;;;;;5072545;28;20379;-73
2022/09/25 04:40:51;;;;;;;12.17;4.50;;;12.90;99.90;;;;;;5072224;28;20376;-72
2022/09/25 04:43:17;;;;;;;16.80;5.00;;;12.90;99.90;;;;;;5070854;28;20953;-74
2022/09/25 04:45:42;;;;;;;14.93;4.60;;;12.80;99.90;;;;;;5070722;28;20791;-72
2022/09/25 04:48:08;;;;;;;11.43;4.80;;;12.80;99.90;;;;;;5070819;28;20383;-71
2022/09/25 04:50:34;;;;;;;14.00;4.97;;;12.80;99.90;;;;;;5072472;28;20372;-73
2022/09/25 04:52:59;;;;;;;11.23;4.18;;;12.70;99.90;;;;;;5071822;28;20383;-72
2022/09/25 04:55:26;;;;;;;20.53;5.23;;;12.70;99.90;;;;;;5071474;28;20383;-72
2022/09/25 04:57:54;;;;;;;16.25;4.70;;;12.60;99.90;;;;;;5072737;28;20439;-75
2022/09/25 05:00:20;;;;;;;13.57;4.60;;;12.60;99.90;;;;;;5072144;28;20435;-74
2022/09/25 05:02:46;;;;;;;18.27;4.70;;;12.60;99.90;;;;;;5072071;28;20394;-74
2022/09/25 05:05:13;;;;;;;17.30;4.60;;;12.60;99.90;;;;;;5071911;28;20466;-74
2022/09/25 05:07:38;;;;;;;13.30;4.53;;;12.60;99.90;;;;;;5072140;28;20380;-73
2022/09/25 05:10:07;;;;;;;13.30;4.50;;;12.50;99.90;;;;;;5072536;28;20879;-74
2022/09/25 05:12:33;;;;;;;21.08;4.20;;;12.60;99.90;;;;;;5071972;28;20462;-73
2022/09/25 05:14:58;;;;;;;10.48;4.18;;;12.60;99.90;;;;;;5071620;28;20419;-72
2022/09/25 05:17:24;;;;;;;21.10;5.00;;;12.60;99.90;;;;;;5071628;28;20389;-74
2022/09/25 05:19:50;;;;;;;11.85;4.78;;;12.50;99.90;;;;;;5072081;28;20400;-74
2022/09/25 05:22:15;;;;;;;17.83;4.22;;;12.50;99.90;;;;;;5071710;28;20380;-74
2022/09/25 05:24:41;;;;;;;17.60;4.45;;;12.50;99.90;;;;;;5070514;28;20372;-72
2022/09/25 05:27:07;;;;;;;11.23;3.90;;;12.50;99.90;;;;;;5072144;28;20402;-74
2022/09/25 05:29:33;;;;;;;11.75;4.00;;;12.60;99.90;;;;;;5073045;28;20391;-74
2022/09/25 05:31:59;;;;;;;16.40;4.27;;;12.70;96.70;;;;;;5074449;28;20478;-74
2022/09/25 05:34:25;;;;;;;20.38;4.20;;;12.70;95.70;;;;;;5082088;28;20423;-73
2022/09/25 05:36:51;;;;;;;11.55;3.67;;;12.80;95.30;;;;;;5076564;28;20395;-73
2022/09/25 05:39:16;;;;;;;13.33;3.67;;;12.70;95.70;;;;;;5073298;28;20403;-73
2022/09/25 05:41:42;;;;;;;8.30;3.50;;;12.70;94.60;;;;;;5073507;28;20465;-74
2022/09/25 05:44:08;;;;;;;14.83;3.50;;;12.80;92.70;;;;;;5072057;28;20471;-73
2022/09/25 05:46:37;;;;;;;15.75;4.05;;;12.70;93.30;;;;;;5071648;28;20388;-73
2022/09/25 05:49:03;;;;;;;14.30;3.80;;;12.70;92.00;;;;;;5071717;28;20430;-74
2022/09/25 05:51:29;;;;;;;17.75;3.45;;;12.80;91.80;;;;;;5071986;28;20422;-73
2022/09/25 05:53:55;;;;;;;12.75;3.92;;;12.80;91.60;;;;;;5087981;28;20388;-72
2022/09/25 05:56:23;;;;;;;7.63;2.90;;;12.80;92.00;;;;;;5085370;28;20396;-72
2022/09/25 05:58:49;;;;;;;12.45;3.50;;;12.80;90.80;;;;;;5084726;28;20403;-75
2022/09/25 06:01:15;;;;;;;12.10;3.90;;;12.80;90.50;;;;;;5073402;28;20420;-75
2022/09/25 06:03:41;;;;;;;14.70;3.70;;;12.90;90.70;;;;;;5072592;28;20456;-74
2022/09/25 06:06:07;;;;;;;9.60;3.13;;;12.90;88.60;;;;;;5072669;28;20395;-74
2022/09/25 06:08:34;;;;;;;11.70;3.40;;;12.90;87.30;;;;;;5076786;28;20430;-74
2022/09/25 06:11:01;;;;;;;13.43;3.40;;;12.90;87.50;;;;;;5076786;28;20461;-74
2022/09/25 06:13:28;;;;;;;18.45;4.30;;;12.90;88.50;;;;;;5077379;28;20387;-72
2022/09/25 06:15:55;;;;;;;14.88;3.33;;;12.90;87.90;;;;;;5078916;28;20387;-73
2022/09/25 06:18:23;;;;;;;13.38;3.60;;;13.10;83.10;;;;;;5078614;28;20455;-74
2022/09/25 06:20:49;;;;;;;15.32;3.65;;;13.10;81.30;;;;;;5078602;28;20763;-75
2022/09/25 06:23:16;;;;;;;13.35;3.10;;;13.10;81.80;;;;;;5077930;28;20737;-74
2022/09/25 06:25:42;;;;;;;15.18;4.18;;;13.10;80.60;;;;;;5077543;28;20419;-75
2022/09/25 06:28:10;;;;;;;22.23;3.25;;;13.20;79.20;;;;;;5078089;28;20784;-72
2022/09/25 06:30:37;;;;;;;10.18;2.80;;;13.20;76.80;;;;;;5078015;28;20429;-73
2022/09/25 06:33:09;;;;;;;10.50;3.33;;;13.20;75.10;;;;;;5079467;28;20915;-72
2022/09/25 06:35:41;;;;;;;15.32;3.58;;;13.10;76.60;;;;;;5083473;28;20407;-73
2022/09/25 06:38:06;;;;;;;12.23;3.22;;;13.20;77.60;;;;;;5083869;28;20375;-71
2022/09/25 06:40:32;;;;;;;14.93;3.30;;;13.20;76.60;;;;;;5085655;28;20746;-73
2022/09/25 06:42:59;;;;;;;16.30;3.30;;;13.30;75.50;;;;;;5077396;28;20438;-73
2022/09/25 06:45:26;;;;;;;13.30;3.40;;;13.30;76.00;;;;;;5076071;28;20387;-73
2022/09/25 06:48:12;;;;;;;14.37;3.70;;;13.30;77.20;;;;;;5075184;28;20384;-73
2022/09/25 06:50:41;;;;;;;10.02;3.60;;;13.20;75.80;;;;;;5075303;28;20832;-74
2022/09/25 06:53:08;;;;;;;15.67;3.57;;;13.20;76.20;;;;;;5074460;28;20752;-73
2022/09/25 06:55:33;;;;;;;13.23;3.90;;;13.10;76.60;;;;;;5074963;28;20387;-73
2022/09/25 06:58:00;;;;;;;9.90;3.30;;;13.10;77.10;;;;;;5073965;28;20433;-73
2022/09/25 07:00:26;;;;;;;11.60;3.80;;;13.20;75.90;;;;;;5075112;28;20400;-73
2022/09/25 07:05:35;;;;;;;12.73;3.53;;;13.20;74.50;;;;;;5076849;28;20457;-73
2022/09/25 07:08:01;;;;;;;17.37;4.40;;;13.40;71.60;;;;;;5075199;28;20384;-74
2022/09/25 07:10:27;;;;;;;9.23;3.47;;;13.50;70.00;;;;;;5075941;28;20383;-73
2022/09/25 07:12:52;;;;;;;12.53;3.37;;;13.60;69.30;;;;;;5075349;28;20392;-73
2022/09/25 07:15:18;;;;;;;14.95;3.78;;;13.70;68.20;;;;;;5075575;28;20380;-74
2022/09/25 07:17:44;;;;;;;13.40;3.50;;;13.70;67.70;;;;;;5075277;28;20468;-74
2022/09/25 07:20:12;;;;;;;9.45;3.40;;;13.90;64.30;;;;;;5074751;28;20403;-72
2022/09/25 07:22:39;;;;;;;15.35;3.63;;;13.80;63.40;;;;;;5074865;28;20454;-74
2022/09/25 07:25:06;;;;;;;9.57;3.38;;;13.90;62.50;;;;;;5075254;28;20388;-75
2022/09/25 07:27:31;;;;;;;15.75;3.30;;;13.80;62.30;;;;;;5075309;28;20830;-75
2022/09/25 07:29:57;;;;;;;15.13;3.25;;;13.80;62.40;;;;;;5075656;28;20380;-74
2022/09/25 07:32:22;;;;;;;13.55;3.60;;;13.70;62.30;;;;;;5074727;28;20403;-72
2022/09/25 07:34:49;;;;;;;15.02;4.40;;;13.60;64.50;;;;;;5075143;28;20379;-72
2022/09/25 07:37:15;;;;;;;15.80;4.18;;;13.60;65.40;;;;;;5076107;28;20399;-75
2022/09/25 07:39:42;;;;;;;13.80;3.70;;;13.70;64.00;;;;;;5074213;28;20399;-72
2022/09/25 07:42:07;;;;;;;11.67;3.40;;;13.70;64.80;;;;;;5074929;28;20434;-72
2022/09/25 07:44:33;;;;;;;13.70;3.83;;;13.70;64.40;;;;;;5075219;28;20388;-74
2022/09/25 07:47:00;;;;;;;12.53;3.87;;;13.70;63.80;;;;;;5075670;28;20379;-74
2022/09/25 07:49:25;;;;;;;19.53;4.43;;;13.60;64.40;;;;;;5074838;28;20458;-73
2022/09/25 07:51:51;;;;;;;14.10;4.30;;;13.60;65.70;;;;;;5075724;28;20384;-73
2022/09/25 07:54:17;;;;;;;14.13;4.23;;;13.60;66.20;;;;;;5075050;28;20445;-73
2022/09/25 07:56:42;;;;;;;17.03;5.00;;;13.70;66.20;;;;;;5075486;28;20384;-73
2022/09/25 07:59:08;;;;;;;14.07;3.50;;;13.80;64.20;;;;;;5074747;28;20490;-75
2022/09/25 08:01:33;;;;;;;15.18;5.07;;;14.00;62.80;;;;;;5074332;28;20474;-73
2022/09/25 08:03:59;;;;;;;20.65;4.18;;;14.00;62.20;;;;;;5074277;28;20380;-74
2022/09/25 08:06:25;;;;;;;11.85;4.20;;;13.80;62.20;;;;;;5076619;28;20395;-73
2022/09/25 08:08:50;;;;;;;15.87;3.90;;;13.70;62.20;;;;;;5082407;28;20407;-73
2022/09/25 08:11:17;;;;;;;14.87;4.13;;;13.70;62.90;;;;;;5081530;28;20391;-73
2022/09/25 08:13:43;;;;;;;11.35;4.00;;;13.70;64.60;;;;;;5078589;28;20383;-73
2022/09/25 08:16:12;;;;;;;17.57;4.40;;;13.90;61.90;;;;;;5074381;28;20394;-74
2022/09/25 08:18:40;;;;;;;13.57;3.80;;;14.00;60.30;;;;;;5072784;28;20407;-73
2022/09/25 08:21:07;;;;;;;13.38;4.13;;;14.10;58.70;;;;;;5074320;28;20408;-72
2022/09/25 08:23:32;;;;;;;16.15;3.80;;;14.10;58.40;;;;;;5074684;28;20415;-75
2022/09/25 08:25:59;;;;;;;14.52;4.63;;;14.30;57.50;;;;;;5075500;28;20383;-73
2022/09/25 08:28:25;;;;;;;11.70;2.97;;;14.50;57.20;;;;;;5074538;28;20368;-74
2022/09/25 08:30:50;;;;;;;14.45;3.58;;;14.70;53.50;;;;;;5074343;28;20390;-73
2022/09/25 08:33:16;;;;;;;12.73;3.50;;;14.70;50.50;;;;;;5073633;28;20891;-73
2022/09/25 08:35:42;;;;;;;22.23;3.65;;;14.80;50.80;;;;;;5075381;28;20376;-74
2022/09/25 08:38:10;;;;;;;12.20;3.35;;;15.00;47.10;;;;;;5074657;28;20464;-73
2022/09/25 08:40:47;;;;;;;15.93;3.10;;;15.20;47.20;;;;;;5075447;28;20883;-74
2022/09/25 08:43:19;;;;;;;13.38;2.72;;;15.40;44.00;;;;;;5074467;28;20386;-73
2022/09/25 08:49:05;;;;;;;10.77;2.45;;;15.50;41.40;;;;;;5075539;28;20422;-73
2022/09/25 08:51:35;;;;;;;10.95;2.63;;;15.70;41.10;;;;;;5075260;28;20380;-74
2022/09/25 08:54:02;;;;;;;10.00;2.58;;;15.50;41.30;;;;;;5075236;28;20372;-73
2022/09/25 08:56:31;;;;;;;12.68;2.50;;;15.40;40.40;;;;;;5074542;28;20400;-73
2022/09/25 08:59:34;;;;;;;6.28;2.25;;;15.40;40.70;;;;;;5075180;28;20403;-74
2022/09/25 09:02:17;;;;;;;9.43;2.28;;;15.40;39.70;;;;;;5073856;28;20383;-72
2022/09/25 09:04:56;;;;;;;9.43;2.60;;;15.30;40.70;;;;;;5074393;28;20471;-73
2022/09/25 09:07:37;;;;;;;8.77;2.00;;;15.30;40.90;;;;;;5078052;28;20429;-73
2022/09/25 09:10:28;;;;;;;8.40;1.95;;;15.10;39.40;;;;;;5079237;28;20388;-74
2022/09/25 09:13:17;;;;;;;14.63;2.40;;;15.00;41.20;;;;;;5079076;28;20412;-75
2022/09/25 09:15:48;;;;;;;12.82;2.33;;;14.90;40.70;;;;;;5036394;28;20395;-73
2022/09/25 09:18:38;;;;;;;8.48;2.22;;;14.90;40.30;;;;;;5072097;28;20393;-73
2022/09/25 09:21:03;;;;;;;7.27;1.80;;;15.00;39.60;;;;;;5064263;28;20392;-75
2022/09/25 09:23:39;;;;;;;11.23;2.30;;;15.10;38.60;;;;;;5073274;28;20425;-72
2022/09/25 09:26:13;;;;;;;11.80;2.22;;;15.20;38.40;;;;;;5073857;28;20407;-72
2022/09/25 09:28:45;;;;;;;11.13;1.70;;;15.40;38.50;;;;;;5074379;28;20864;-72
2022/09/25 09:31:21;;;;;;;12.95;2.15;;;15.70;35.40;;;;;;5073490;28;20379;-74
2022/09/25 09:33:57;;;;;;;8.60;2.30;;;15.80;34.80;;;;;;5073503;28;20899;-74
2022/09/25 09:36:34;;;;;;;6.80;1.67;;;16.00;33.00;;;;;;5073463;28;20478;-74
2022/09/25 09:39:28;;;;;;;8.07;1.88;;;16.10;31.60;;;;;;5073129;28;20395;-73
2022/09/25 09:42:21;;;;;;;11.47;1.80;;;16.10;32.20;;;;;;5072039;28;20375;-74
2022/09/25 09:44:57;;;;;;;12.18;2.20;;;16.10;32.30;;;;;;5072917;28;20380;-74
2022/09/25 09:48:18;;;;;;;10.05;2.15;;;16.00;32.00;;;;;;5072346;28;20388;-74
2022/09/25 09:50:51;;;;;;;4.13;1.70;;;16.20;31.60;;;;;;5011249;28;20399;-73
2022/09/25 09:53:26;;;;;;;5.28;1.92;;;16.00;28.90;;;;;;5063312;28;20391;-72
2022/09/25 09:56:03;;;;;;;6.95;1.80;;;16.00;29.80;;;;;;5073725;28;20376;-74
2022/09/25 09:58:29;;;;;;;11.25;1.90;;;16.10;29.00;;;;;;5073717;28;20455;-74
2022/09/25 10:00:55;;;;;;;7.40;1.60;;;16.00;29.30;;;;;;5073910;28;20458;-74
2022/09/25 10:03:27;;;;;;;5.28;1.67;;;16.20;28.10;;;;;;5072333;28;20402;-73
2022/09/25 10:06:03;;;;;;;6.85;1.30;;;16.20;27.70;;;;;;5072173;28;20441;-71
2022/09/25 10:08:29;;;;;;;9.18;1.92;;;16.40;27.60;;;;;;5070473;28;20402;-73
2022/09/25 10:10:55;;;;;;;5.13;1.60;;;16.60;26.40;;;;;;5071242;28;20376;-73
2022/09/25 10:13:29;;;;;;;7.00;1.90;;;16.60;25.50;;;;;;5071355;28;20390;-73
2022/09/25 10:16:01;;;;;;;7.10;1.50;;;16.90;25.50;;;;;;5071080;28;20380;-72
2022/09/25 10:18:48;;;;;;;6.27;1.70;;;17.20;24.20;;;;;;5071174;28;20429;-72
2022/09/25 10:21:20;;;;;;;7.63;1.50;;;17.30;22.80;;;;;;5070826;28;20790;-72
2022/09/25 10:23:45;;;;;;;6.50;1.40;;;17.30;23.20;;;;;;5071416;28;20446;-72
2022/09/25 10:26:30;;;;;;;7.93;1.40;;;17.10;24.30;;;;;;5069904;28;20747;-73
2022/09/25 10:29:01;;;;;;;4.93;1.40;;;16.90;22.70;;;;;;5070081;28;20388;-73
2022/09/25 10:31:30;;;;;;;7.72;1.90;;;16.60;26.20;;;;;;5071250;28;20378;-73
2022/09/25 10:34:00;;;;;;;5.25;1.50;;;16.50;26.60;;;;;;5071016;28;20856;-73
2022/09/25 10:36:39;;;;;;;3.25;1.10;;;16.50;25.90;;;;;;5071648;28;20463;-73
2022/09/25 10:39:24;;;;;;;6.50;1.70;;;16.90;24.00;;;;;;5072076;28;20399;-73
2022/09/25 10:41:51;;;;;;;8.38;1.55;;;17.00;24.00;;;;;;5072012;28;20410;-73
2022/09/25 10:44:28;;;;;;;4.53;1.60;;;17.00;23.80;;;;;;5072706;28;20398;-73
2022/09/25 10:52:48;;;;;;;6.63;1.60;;;16.90;23.30;;;;;;5074250;28;20454;-73
2022/09/25 10:55:24;;;;;;;7.10;1.65;;;16.90;20.90;;;;;;5074838;28;20414;-73
2022/09/25 10:57:57;;;;;;;6.45;1.92;;;16.80;19.90;;;;;;5075792;28;20454;-71
2022/09/25 11:00:25;;;;;;;7.43;2.40;;;16.90;22.10;;;;;;5075819;28;20765;-73
2022/09/25 11:02:56;;;;;;;8.63;2.45;;;16.90;22.70;;;;;;5076653;28;20380;-73
2022/09/25 11:05:29;;;;;;;9.80;2.88;;;16.90;24.00;;;;;;5076735;28;20430;-72
2022/09/25 11:07:57;;;;;;;8.02;2.20;;;17.20;23.00;;;;;;5085461;28;20368;-72
2022/09/25 11:10:46;;;;;;;8.13;2.40;;;17.40;22.80;;;;;;5090933;28;20420;-73
2022/09/25 11:13:23;;;;;;;8.30;2.72;;;17.50;22.90;;;;;;5088864;28;20376;-73
2022/09/25 11:15:52;;;;;;;12.27;2.80;;;17.60;23.10;;;;;;5082521;28;20743;-73
2022/09/25 11:18:43;;;;;;;7.00;2.67;;;17.60;22.30;;;;;;5074837;28;20438;-72
2022/09/25 11:21:51;;;;;;;8.45;3.13;;;17.20;22.80;;;;;;5074082;28;20864;-72
2022/09/25 11:24:35;;;;;;;8.13;2.75;;;17.00;23.60;;;;;;5050066;28;20398;-73
2022/09/25 11:27:10;;;;;;;9.90;2.58;;;16.90;24.00;;;;;;5074098;28;20387;-72
2022/09/25 11:29:55;;;;;;;12.00;3.08;;;17.20;24.00;;;;;;5074073;28;20380;-72
2022/09/25 11:32:41;;;;;;;8.77;2.53;;;17.60;23.10;;;;;;5073703;28;20403;-72
2022/09/25 11:35:37;;;;;;;7.57;2.53;;;17.80;22.10;;;;;;5073608;28;20382;-73
2022/09/25 11:41:10;;;;;;;5.97;1.70;;;18.20;21.10;;;;;;5073852;28;20384;-72
2022/09/25 11:41:19;;;;;;;10.47;2.17;;;17.80;19.50;;;;;;5073338;28;20411;-72
2022/09/25 11:43:56;;;;;;;9.50;2.70;;;17.60;20.50;;;;;;5073837;28;20836;-73
2022/09/25 11:46:46;;;;;;;6.82;2.20;;;17.90;20.30;;;;;;5073998;28;20452;-72
2022/09/25 11:49:19;;;;;;;10.35;2.50;;;18.00;19.50;;;;;;5073552;28;20375;-73
2022/09/25 11:52:19;;;;;;;7.72;2.28;;;17.90;19.50;;;;;;5073257;28;20383;-74
2022/09/25 11:54:44;;;;;;;5.47;2.00;;;17.80;20.20;;;;;;5073777;28;20379;-72
2022/09/25 11:57:35;;;;;;;5.60;2.30;;;17.70;20.30;;;;;;5072305;28;20390;-73
2022/09/25 12:00:39;;;;;;;9.00;2.13;;;17.60;20.70;;;;;;5073416;28;20957;-72
2022/09/25 12:03:18;;;;;;;7.57;2.40;;;17.40;19.50;;;;;;5041325;28;20394;-73
2022/09/25 12:05:49;;;;;;;6.90;2.30;;;17.40;20.40;;;;;;5072766;28;20453;-72
2022/09/25 12:08:41;;;;;;;6.55;2.00;;;17.50;20.60;;;;;;5073136;28;20391;-73
2022/09/25 12:11:53;;;;;;;7.00;1.85;;;17.60;18.40;;;;;;5072567;28;20460;-72
2022/09/25 12:14:47;;;;;;;5.88;2.00;;;18.20;18.20;;;;;;5045292;28;20437;-74
2022/09/25 12:17:36;;;;;;;4.50;1.60;;;18.70;14.80;;;;;;5073110;28;20403;-72
2022/09/25 12:20:03;;;;;;;3.85;1.50;;;18.90;13.20;;;;;;5072566;28;20411;-72
2022/09/25 12:22:31;;;;;;;6.05;1.70;;;19.00;13.70;;;;;;5072426;28;20387;-72
2022/09/25 12:25:23;;;;;;;6.37;2.10;;;18.80;14.70;;;;;;5072510;28;20572;-72
2022/09/25 12:28:03;;;;;;;5.17;2.10;;;18.70;15.70;;;;;;5048844;28;20752;-73
2022/09/25 12:30:38;;;;;;;6.88;2.30;;;18.60;17.30;;;;;;5075442;28;20380;-72
2022/09/25 12:33:27;;;;;;;9.23;1.85;;;17.90;19.30;;;;;;5072863;28;20379;-72
2022/09/25 12:36:10;;;;;;;6.22;1.70;;;17.20;20.80;;;;;;5073357;28;20398;-74
2022/09/25 12:39:16;;;;;;;7.83;2.03;;;17.00;21.40;;;;;;5073496;28;20915;-73
2022/09/25 12:41:52;;;;;;;5.10;1.60;;;17.00;21.20;;;;;;5071816;28;20388;-73
2022/09/25 12:44:28;;;;;;;8.23;1.30;;;16.90;21.10;;;;;;5072442;28;20376;-72
2022/09/25 12:47:10;;;;;;;8.15;1.70;;;16.70;19.60;;;;;;5072836;28;20379;-73
2022/09/25 12:49:45;;;;;;;7.32;1.92;;;16.60;20.00;;;;;;5073238;28;20417;-73
2022/09/25 12:52:29;;;;;;;6.80;2.00;;;16.80;20.20;;;;;;5072619;28;20929;-73
2022/09/25 12:55:05;;;;;;;6.75;1.98;;;16.90;19.40;;;;;;5072759;28;20387;-72
2022/09/25 12:57:44;;;;;;;5.47;1.70;;;16.90;18.50;;;;;;5073209;28;20410;-72
2022/09/25 13:00:20;;;;;;;7.67;1.90;;;17.00;18.60;;;;;;5072217;28;20411;-72
2022/09/25 13:02:54;;;;;;;8.70;1.70;;;17.20;15.90;;;;;;5072544;28;20388;-73
2022/09/25 13:05:36;;;;;;;6.22;1.80;;;17.30;16.10;;;;;;5073107;28;20396;-71
2022/09/25 13:08:16;;;;;;;6.35;2.00;;;17.30;17.00;;;;;;5076990;28;20918;-74
2022/09/25 13:10:52;;;;;;;4.30;1.67;;;17.50;17.50;;;;;;5072352;28;20386;-73
2022/09/25 13:13:25;;;;;;;3.13;1.50;;;17.60;16.20;;;;;;5072411;28;20445;-73
2022/09/25 13:15:57;;;;;;;5.63;2.10;;;17.70;15.20;;;;;;5073748;28;20380;-72
2022/09/25 13:18:25;;;;;;;4.80;1.70;;;17.70;15.40;;;;;;5073631;28;20403;-74
2022/09/25 13:20:53;;;;;;;7.88;2.45;;;17.60;14.90;;;;;;5073075;28;20760;-72
2022/09/25 13:23:40;;;;;;;8.88;2.60;;;17.70;14.70;;;;;;5074397;28;20387;-73
2022/09/25 13:26:25;;;;;;;7.07;2.20;;;17.80;15.20;;;;;;5078154;28;20416;-73